Time;durP1;ratioP1;P1;durP2;ratioP2;P2;SDS_P1;SDS_P2;PMS_P1;PMS_P2;Temp;Humidity;BMP_temperature;BMP_pressure;BME280_temperature;BME280_humidity;BME280_pressure;Samples;Min_cycle;Max_cycle;Signal;HPM_P1;HPM_P2
2022/10/20 00:06:29;;;;;;;2.23;0.90;;;20.00;50.90;;;;;;20665031;28;20042;-81
2022/10/20 00:16:31;;;;;;;1.65;0.40;;;20.00;51.00;;;;;;20658851;28;20073;-80
2022/10/20 00:26:32;;;;;;;1.30;1.15;;;19.90;51.00;;;;;;20675351;28;20476;-81
2022/10/20 00:36:33;;;;;;;0.95;0.68;;;19.80;51.00;;;;;;20686844;28;20036;-81
2022/10/20 00:46:39;;;;;;;1.63;0.80;;;19.80;51.10;;;;;;20672744;28;20049;-80
2022/10/20 00:56:41;;;;;;;1.40;0.60;;;19.80;51.20;;;;;;20676411;28;20069;-80
2022/10/20 01:06:43;;;;;;;1.33;0.63;;;19.80;51.40;;;;;;20678316;28;20089;-81
2022/10/20 01:17:06;;;;;;;1.10;0.50;;;19.80;51.60;;;;;;20672868;28;20045;-79
2022/10/20 01:27:28;;;;;;;4.22;0.80;;;19.70;51.60;;;;;;20657584;28;20101;-80
2022/10/20 01:37:33;;;;;;;1.60;0.50;;;19.80;51.80;;;;;;20644580;28;20465;-78
2022/10/20 01:47:34;;;;;;;1.30;0.73;;;19.70;51.80;;;;;;20688467;28;20365;-81
2022/10/20 01:57:53;;;;;;;1.17;0.73;;;19.70;51.90;;;;;;21074478;23;20479;-78
2022/10/20 02:08:06;;;;;;;1.20;0.60;;;19.60;51.90;;;;;;20674735;28;20484;-81
2022/10/20 02:18:06;;;;;;;1.13;0.50;;;19.60;52.00;;;;;;20663302;28;20042;-82
2022/10/20 02:28:09;;;;;;;1.70;0.47;;;19.60;52.00;;;;;;20667585;28;20035;-80
2022/10/20 02:38:10;;;;;;;0.80;0.40;;;19.60;52.00;;;;;;20707680;28;20852;-79
2022/10/20 02:48:10;;;;;;;0.77;0.50;;;19.60;52.80;;;;;;20693432;28;20137;-80
2022/10/20 02:58:11;;;;;;;0.85;0.50;;;19.50;52.10;;;;;;20672779;28;20843;-81
2022/10/20 03:08:12;;;;;;;0.85;0.70;;;19.50;52.10;;;;;;20689114;28;20027;-81
2022/10/20 03:18:13;;;;;;;1.08;0.70;;;19.50;52.90;;;;;;20676246;28;20045;-82
2022/10/20 03:28:15;;;;;;;1.85;0.70;;;19.40;52.20;;;;;;20682281;28;20034;-81
2022/10/20 03:38:16;;;;;;;2.33;0.90;;;19.40;52.10;;;;;;20679365;28;20104;-81
2022/10/20 03:48:16;;;;;;;0.90;0.55;;;19.40;52.10;;;;;;20678332;28;20034;-80
2022/10/20 03:58:18;;;;;;;1.25;0.60;;;19.40;52.10;;;;;;20687092;28;20037;-80
2022/10/20 04:08:18;;;;;;;1.80;0.80;;;19.30;52.00;;;;;;20668025;28;20524;-78
2022/10/20 04:18:21;;;;;;;1.33;0.57;;;19.30;52.10;;;;;;20680037;28;20026;-78
2022/10/20 04:28:22;;;;;;;1.95;0.70;;;19.30;52.10;;;;;;20675043;28;20182;-79
2022/10/20 04:38:22;;;;;;;1.70;0.70;;;19.20;52.10;;;;;;20694720;28;20085;-81
2022/10/20 04:48:24;;;;;;;0.70;0.50;;;19.20;52.10;;;;;;20672091;28;20038;-81
2022/10/20 04:58:27;;;;;;;0.80;0.70;;;19.20;52.10;;;;;;20689021;28;20066;-80
2022/10/20 05:08:29;;;;;;;0.60;0.40;;;19.20;52.20;;;;;;20687923;28;20030;-81
2022/10/20 05:18:31;;;;;;;0.57;0.35;;;19.10;52.40;;;;;;20668064;28;20094;-82
2022/10/20 05:28:33;;;;;;;0.60;0.40;;;19.10;52.50;;;;;;20685052;28;20085;-80
2022/10/20 05:38:35;;;;;;;0.80;0.52;;;19.10;52.70;;;;;;20687609;28;20038;-79
2022/10/20 05:48:36;;;;;;;1.13;0.50;;;19.10;53.50;;;;;;20638683;28;20046;-80
2022/10/20 05:58:38;;;;;;;0.88;0.50;;;19.00;52.90;;;;;;20666774;28;20085;-82
2022/10/20 06:08:41;;;;;;;1.00;0.40;;;19.00;53.00;;;;;;20701314;28;20033;-80
2022/10/20 06:18:43;;;;;;;1.23;0.50;;;19.00;53.00;;;;;;20661690;28;20057;-84
2022/10/20 06:28:49;;;;;;;0.70;0.55;;;18.90;53.00;;;;;;20706853;28;20034;-85
2022/10/20 06:38:53;;;;;;;;;;;18.90;53.10;;;;;;20663111;28;20050;-80
2022/10/20 06:48:54;;;;;;;0.40;0.30;;;18.90;53.30;;;;;;20650409;28;19918;-76
2022/10/20 06:58:55;;;;;;;0.35;0.30;;;18.80;53.20;;;;;;20659111;28;20492;-74
2022/10/20 07:08:57;;;;;;;0.45;0.28;;;18.80;53.40;;;;;;20684766;28;20129;-76
2022/10/20 07:19:00;;;;;;;0.95;0.40;;;18.80;53.40;;;;;;20689212;28;20065;-76
2022/10/20 07:29:02;;;;;;;0.50;0.38;;;18.80;53.50;;;;;;20707019;28;20384;-80
2022/10/20 07:39:04;;;;;;;0.73;0.40;;;18.80;53.60;;;;;;20689429;28;20042;-79
2022/10/20 07:49:04;;;;;;;0.98;0.55;;;18.80;53.60;;;;;;20683542;28;20050;-80
2022/10/20 07:59:07;;;;;;;1.00;0.50;;;18.70;53.70;;;;;;20717676;28;20129;-78
2022/10/20 08:09:09;;;;;;;1.48;0.60;;;18.70;53.80;;;;;;20680394;28;20070;-79
2022/10/20 08:19:10;;;;;;;0.95;0.55;;;18.70;53.90;;;;;;20693973;28;20049;-79
2022/10/20 08:29:11;;;;;;;0.82;0.70;;;18.70;53.90;;;;;;20694770;28;20061;-77
2022/10/20 08:39:13;;;;;;;0.98;0.60;;;18.70;53.90;;;;;;20676691;28;20042;-78
2022/10/20 08:49:21;;;;;;;1.10;0.50;;;18.70;53.90;;;;;;20654472;28;20109;-77
2022/10/20 08:59:26;;;;;;;1.52;0.90;;;18.70;53.90;;;;;;20670933;28;20069;-77
2022/10/20 09:09:29;;;;;;;1.37;0.60;;;18.70;53.90;;;;;;20717307;28;20487;-81
2022/10/20 09:19:30;;;;;;;0.52;0.52;;;18.70;53.80;;;;;;20682616;28;20073;-82
2022/10/20 09:29:36;;;;;;;1.48;0.90;;;18.80;53.70;;;;;;20671590;28;20042;-79
2022/10/20 09:39:49;;;;;;;1.52;0.70;;;18.90;53.50;;;;;;20680533;28;20042;-82
2022/10/20 09:49:58;;;;;;;1.00;0.65;;;18.90;53.30;;;;;;20673633;28;20125;-79
2022/10/20 09:59:59;;;;;;;1.90;0.85;;;19.10;53.10;;;;;;20684822;28;20034;-80
2022/10/20 10:10:04;;;;;;;1.55;0.88;;;19.20;52.80;;;;;;20664837;28;20033;-80
2022/10/20 10:20:09;;;;;;;1.48;0.90;;;19.30;52.50;;;;;;20670300;28;20491;-78
2022/10/20 10:30:15;;;;;;;1.27;0.88;;;19.40;52.20;;;;;;20713632;28;20041;-79
2022/10/20 10:40:17;;;;;;;1.35;0.80;;;19.50;51.90;;;;;;20713057;28;20034;-81
2022/10/20 10:50:43;;;;;;;1.20;0.90;;;19.60;51.60;;;;;;20687982;28;20039;-80
2022/10/20 11:00:55;;;;;;;1.50;1.03;;;19.80;51.20;;;;;;20713284;28;20041;-77
2022/10/20 11:11:02;;;;;;;2.25;1.10;;;20.00;50.90;;;;;;20712357;28;20037;-77
2022/10/20 11:21:35;;;;;;;1.52;0.88;;;20.20;50.50;;;;;;20683165;28;20037;-76
2022/10/20 11:31:53;;;;;;;0.77;0.77;;;20.40;50.10;;;;;;20661272;28;20046;-75
2022/10/20 11:41:58;;;;;;;1.45;0.75;;;20.50;49.60;;;;;;20679286;28;20034;-76
2022/10/20 11:52:21;;;;;;;3.53;0.70;;;20.60;49.40;;;;;;20645181;28;20563;-83
2022/10/20 12:02:58;;;;;;;2.35;1.00;;;20.80;49.00;;;;;;20720202;28;20034;-77
2022/10/20 12:13:26;;;;;;;4.00;2.28;;;21.00;48.70;;;;;;20697504;28;20099;-83
2022/10/20 12:23:45;;;;;;;3.35;1.33;;;21.10;48.30;;;;;;20717867;28;20045;-76
2022/10/20 12:33:48;;;;;;;1.67;0.93;;;21.20;48.20;;;;;;20730276;28;20101;-81
2022/10/20 12:43:52;;;;;;;2.92;0.82;;;21.20;48.10;;;;;;20703791;28;20548;-81
2022/10/20 12:53:59;;;;;;;;;;;21.20;48.00;;;;;;20680715;28;20037;-81
2022/10/20 13:04:00;;;;;;;1.00;0.80;;;21.20;47.90;;;;;;20686357;28;20506;-81
2022/10/20 13:14:23;;;;;;;3.08;0.90;;;21.20;47.80;;;;;;20670367;28;20121;-82
2022/10/20 13:24:29;;;;;;;1.27;0.80;;;21.30;47.70;;;;;;20712657;28;20066;-82
2022/10/20 13:34:51;;;;;;;3.35;0.68;;;21.30;47.60;;;;;;20675341;28;20034;-80
2022/10/20 13:45:11;;;;;;;1.20;0.75;;;21.40;47.40;;;;;;20707429;28;20039;-77
2022/10/20 13:55:21;;;;;;;1.85;0.63;;;21.40;47.30;;;;;;20692079;28;20034;-78
2022/10/20 14:05:22;;;;;;;1.52;0.47;;;21.50;47.40;;;;;;20666737;28;20037;-75
2022/10/20 14:15:34;;;;;;;0.38;0.38;;;21.50;47.20;;;;;;20680122;28;20497;-75
2022/10/20 14:25:35;;;;;;;0.80;0.70;;;21.40;47.30;;;;;;20718795;28;20033;-77
2022/10/20 14:35:40;;;;;;;1.48;0.70;;;21.50;47.20;;;;;;20688898;28;20580;-77
2022/10/20 14:45:43;;;;;;;1.07;0.60;;;21.50;47.20;;;;;;20706395;28;20680;-76
2022/10/20 14:55:43;;;;;;;1.10;0.63;;;21.40;47.30;;;;;;20670017;28;20881;-75
2022/10/20 15:05:44;;;;;;;0.88;0.70;;;21.40;47.30;;;;;;20708196;28;20026;-74
2022/10/20 15:15:45;;;;;;;1.58;1.00;;;21.40;47.40;;;;;;20698313;28;20047;-75
2022/10/20 15:26:01;;;;;;;2.90;1.02;;;21.20;47.70;;;;;;20673036;28;20033;-77
2022/10/20 15:36:05;;;;;;;7.45;0.88;;;21.20;47.80;;;;;;20667312;28;20041;-74
2022/10/20 15:46:07;;;;;;;1.02;0.73;;;21.40;47.80;;;;;;20667221;28;20113;-74
2022/10/20 15:56:08;;;;;;;1.60;0.77;;;22.40;45.90;;;;;;20665289;28;20480;-76
2022/10/20 16:06:12;;;;;;;4.65;0.93;;;22.70;45.20;;;;;;20680865;28;20085;-75
2022/10/20 16:16:15;;;;;;;5.05;1.13;;;22.20;45.80;;;;;;20700271;28;20120;-78
2022/10/20 16:26:19;;;;;;;1.02;0.73;;;22.00;46.10;;;;;;20708405;28;20037;-80
2022/10/20 16:36:22;;;;;;;2.43;0.67;;;22.00;46.30;;;;;;20687079;28;20038;-80
2022/10/20 16:46:23;;;;;;;1.27;0.50;;;21.90;46.30;;;;;;20690926;28;20030;-78
2022/10/20 16:56:26;;;;;;;0.60;0.60;;;21.80;46.60;;;;;;20691280;28;20050;-76
2022/10/20 17:06:27;;;;;;;1.00;0.60;;;21.80;46.70;;;;;;20677553;28;20037;-84
2022/10/20 17:16:29;;;;;;;1.73;0.88;;;21.70;46.90;;;;;;20675225;28;20038;-79
2022/10/20 17:26:30;;;;;;;1.63;0.68;;;21.60;47.10;;;;;;20677775;28;20033;-76
2022/10/20 17:36:32;;;;;;;1.13;0.70;;;21.50;47.20;;;;;;20653922;28;20057;-86
2022/10/20 17:46:36;;;;;;;1.53;0.70;;;21.50;47.40;;;;;;20671919;28;20026;-75
2022/10/20 17:56:39;;;;;;;0.65;0.50;;;21.40;47.50;;;;;;20677493;28;20103;-77
2022/10/20 18:06:39;;;;;;;0.95;0.68;;;21.30;47.60;;;;;;20629364;28;20042;-76
2022/10/20 18:16:41;;;;;;;1.33;0.73;;;21.20;47.70;;;;;;20654618;28;20033;-76
2022/10/20 18:26:42;;;;;;;1.00;0.70;;;21.20;47.80;;;;;;20641249;28;20126;-77
2022/10/20 18:36:44;;;;;;;0.73;0.60;;;21.20;48.00;;;;;;20629017;28;20046;-76
2022/10/20 18:46:45;;;;;;;1.27;0.70;;;21.10;48.10;;;;;;20686842;28;20081;-77
2022/10/20 18:56:47;;;;;;;0.85;0.50;;;21.10;48.20;;;;;;20648440;28;20029;-77
2022/10/20 19:06:47;;;;;;;1.53;0.80;;;21.00;48.30;;;;;;20677177;28;20399;-76
2022/10/20 19:16:49;;;;;;;1.20;0.80;;;21.10;48.50;;;;;;20696840;28;20030;-76
2022/10/20 19:26:51;;;;;;;1.80;0.88;;;21.00;48.50;;;;;;20673062;28;20118;-76
2022/10/20 19:36:52;;;;;;;1.63;0.77;;;20.90;48.60;;;;;;20644216;28;20085;-76
2022/10/20 19:46:54;;;;;;;1.10;0.65;;;20.80;49.40;;;;;;20660419;28;20049;-75
2022/10/20 19:56:55;;;;;;;0.80;0.52;;;20.80;48.90;;;;;;20679720;28;20063;-75
2022/10/20 20:06:56;;;;;;;0.75;0.40;;;20.70;49.00;;;;;;20659315;28;20042;-76
2022/10/20 20:16:57;;;;;;;1.10;0.90;;;20.70;49.20;;;;;;20672131;28;20028;-74
2022/10/20 20:26:57;;;;;;;0.68;0.57;;;20.60;49.30;;;;;;20665230;28;20377;-75
2022/10/20 20:36:58;;;;;;;1.85;0.70;;;20.60;49.50;;;;;;20690686;28;20032;-75
2022/10/20 20:46:58;;;;;;;0.67;0.60;;;20.50;49.60;;;;;;20639479;28;20034;-75
2022/10/20 20:56:59;;;;;;;1.20;0.63;;;20.50;49.70;;;;;;20662307;28;20300;-75
2022/10/20 21:07:00;;;;;;;1.00;0.70;;;20.50;49.90;;;;;;20652841;28;20433;-75
2022/10/20 21:17:00;;;;;;;1.75;0.75;;;20.50;50.00;;;;;;20674165;28;20084;-76
2022/10/20 21:27:01;;;;;;;1.30;0.73;;;20.40;50.10;;;;;;20668906;28;20046;-75
2022/10/20 21:37:01;;;;;;;1.20;0.60;;;20.40;50.20;;;;;;20663572;28;20042;-76
2022/10/20 21:47:03;;;;;;;0.80;0.55;;;20.30;50.20;;;;;;20675822;28;20041;-75
2022/10/20 21:57:05;;;;;;;0.80;0.70;;;20.30;50.30;;;;;;20666513;28;20042;-75
2022/10/20 22:07:06;;;;;;;1.40;0.70;;;20.30;50.40;;;;;;20650703;28;20121;-76
2022/10/20 22:17:06;;;;;;;1.55;1.00;;;20.30;50.50;;;;;;20664399;28;20491;-76
2022/10/20 22:27:07;;;;;;;1.05;0.70;;;20.20;50.60;;;;;;20633389;28;20053;-75
2022/10/20 22:37:09;;;;;;;1.13;0.80;;;20.20;50.70;;;;;;20663238;28;20050;-75
2022/10/20 22:47:10;;;;;;;2.35;0.80;;;20.20;50.80;;;;;;20695917;28;20056;-75
2022/10/20 22:57:10;;;;;;;1.65;0.82;;;20.10;50.80;;;;;;20682731;28;20370;-75
2022/10/20 23:07:11;;;;;;;1.65;1.00;;;20.10;50.90;;;;;;20655699;28;20556;-75
2022/10/20 23:17:13;;;;;;;1.02;0.70;;;20.10;51.00;;;;;;20658955;28;20488;-75
2022/10/20 23:27:13;;;;;;;0.98;0.68;;;20.00;51.00;;;;;;20700377;28;20469;-75
2022/10/20 23:37:18;;;;;;;0.60;0.60;;;20.00;51.10;;;;;;20654278;28;20030;-75
2022/10/20 23:47:18;;;;;;;1.27;0.93;;;20.00;51.20;;;;;;20650936;28;20293;-75
2022/10/20 23:57:19;;;;;;;1.80;0.88;;;20.00;51.30;;;;;;20681506;28;20091;-76
